AirNav   Air Wisconsin pilot careers
 
 1478 users online  

M20 Leitchfield-Grayson County Airport
Leitchfield, Kentucky, USA

GOING TO LEITCHFIELD?


FAA INFORMATION EFFECTIVE 24 MAY 2018

Location

FAA Identifier: M20
Lat/Long: 37-23-59.1000N / 086-15-40.6000W
37-23.985000N / 086-15.676667W
37.3997500 / -86.2612778
(estimated)
Elevation: 782 ft. / 238.4 m (surveyed)
Variation: 01W (1985)
From city: 4 miles SE of LEITCHFIELD, KY
Time zone: UTC -5 (UTC -6 during Standard Time)
Zip code: 42754

Airport Operations

Airport use: Open to the public
Activation date: 05/1978
Control tower: no
ARTCC: INDIANAPOLIS CENTER
FSS: LOUISVILLE FLIGHT SERVICE STATION
NOTAMs facility: LOU (NOTAM-D service available)
Attendance: UNATTENDED
Pattern altitude: 1582 ft. MSL
Wind indicator: lighted
Segmented circle: yes
Lights: ACTVT MIRL RY 02/20 AND PAPI RYS 02 & 20 - CTAF.
Beacon: white-green (lighted land airport)
ACTVT ROTG BCN - CTAF.

Airport Communications

CTAF/UNICOM: 123.0

Nearby radio navigation aids

VOR radial/distance  VOR name  Freq  Var
BWGr015/29.6BOWLING GREEN VORTAC117.9002E
MYSr183/(29.7)MYSTIC VOR108.2001W
EWOr242/31.1NEW HOPE VOR/DME110.8001E
FTKr205/33.4FORT KNOX VOR/DME109.6001W

 
NDB name  Hdg/Dist  Freq  Var  ID
GODMAN205/36.239603WGOI --. --- ..

Airport Services

Fuel available: 100LL
FUEL AVAILBL 24HR W/CREDIT CARD.
Parking: hangars and tiedowns
Bottled oxygen: NONE
Bulk oxygen: NONE

Runway Information

Runway 2/20

Dimensions: 4000 x 60 ft. / 1219 x 18 m
Surface: asphalt, in good condition
Weight bearing capacity: 
Single wheel: 12.5
Runway edge lights: medium intensity
Gradient: 2% DOWNSLOPE FOR RY 20.
RUNWAY 2  RUNWAY 20
Latitude: 37-23.672992N37-24.297340N
Longitude: 086-15.807367W086-15.544372W
Elevation: 705.6 ft.782.0 ft.
Gradient: 1.9% UP1.5%
Traffic pattern: leftleft
Runway heading: 020 magnetic, 019 true200 magnetic, 199 true
Displaced threshold: 200 ft.no
Declared distances: LDA:3800
Markings: nonprecision, in good conditionnonprecision, in good condition
Visual slope indicator: 2-light PAPI on left (3.00 degrees glide path)2-light PAPI on left (3.00 degrees glide path)
Runway end identifier lights: yesyes
Touchdown point: yes, no lightsyes, no lights
Obstructions: none37 ft. road, 875 ft. from runway, 190 ft. left of centerline, 18:1 slope to clear

Airport Ownership and Management from official FAA records

Ownership: Publicly-owned
Owner: GRAYSON COUNTY AIRPORT BOARD
695 AIRPORT ROAD
LEITCHFIELD, KY 42754
Phone (502) 548-9282
ARPT BOARD CHAIRMAN: MARK COTTRELL
Manager: JOHN POPHAM
782 WHISPERING PINE CIRCLE
CLARKSON, KY 42754
Phone (270) 589-7251

Airport Operational Statistics

Aircraft based on the field: 14
Single engine airplanes: 14
    
Aircraft operations: avg 131/week *
44% transient general aviation
44% local general aviation
9% air taxi
4% military
* for 12-month period ending 21 November 2017

Instrument Procedures

There are no published instrument procedures at M20.

Some nearby airports with instrument procedures:

KEKX - Addington Field Airport (23 nm NE)
KGLW - Glasgow Municipal Airport (27 nm SE)
KBWG - Bowling Green-Warren County Regional Airport (27 nm S)
KJQD - Ohio County Airport (28 nm W)
KFTK - Godman Army Airfield (33 nm NE)
 
Loc | Ops | Rwys | IFR | FBO | Links
Com | Nav | Svcs | Stats | Notes

AirNav Hotels Sweepstakes
 
Area around M20 (Leitchfield-Grayson County Airport)
 
Road maps at: MapQuest Bing Google
 
Aerial photo
WARNING: Photo may not be current or correct
Aerial photo of M20 (Leitchfield-Grayson County Airport)
Do you have a better or more recent aerial photo of Leitchfield-Grayson County Airport that you would like to share? If so, please send us your photo.

 
Sectional chart

 
Airport distance calculator
Flying to Leitchfield-Grayson County Airport? Find the distance to fly.

From to M20

Sunrise and sunset
Times for 18-Jun-2018
 Local
(UTC-5)
 Zulu
(UTC)
Morning civil twilight04:5409:54
Sunrise05:2510:25
Sunset20:0701:07
Evening civil twilight20:3801:38

Current date and time
Zulu (UTC)  18-Jun-2018 21:28:32
Local (UTC-5)  18-Jun-2018 16:28:32
 
METAR
KGLW 
27nm SE 
182110Z AUTO 30005KT 10SM CLR 33/20 A3007 RMK AO2 T03250199
KEKX 
27nm NE 
182115Z AUTO 25005KT 10SM SCT048 SCT055 33/21 A3007 RMK AO2 T03270210
KBWG 
27nm S 
182053Z AUTO 05003KT 10SM SCT110 31/24 A3007 RMK AO2 SLP175 60000 T03110239 58018
KFTK 
32nm NE 
182056Z AUTO 26007KT 10SM SCT045 SCT055 32/23 A3006 RMK AO2 SLP175 T03240227 57019
KKY8 
44nm NW 
182115Z AUTO 23003G10KT 10SM FEW046 SCT060 32/24 A3003 RMK A01
KBRY 
44nm NE 
182115Z AUTO 23004KT 10SM BKN006 BKN010 22/20 A3006 RMK AO1
KOWB 
47nm NW 
182056Z 23008KT 10SM SCT043 33/23 A3004 RMK AO2 SLP175 T03280233 56022
K1M5 
50nm S 
182115Z AUTO 28005KT 10SM SCT046 SCT055 33/21 A3007 RMK A01
TAF
KBWG 
27nm S 
181720Z 1818/1918 25006KT P6SM VCTS BKN035CB FM182300 24005KT P6SM SCT060 SCT100 FM190600 VRB04KT P6SM FEW250
KFTK 
32nm NE 
181700Z 1817/1923 20006KT 9999 FEW040 QNH3002INS TEMPO 1819/1823 19015G30KT 4800 -TSRA BKN035CB BECMG 1822/1823 23006KT 9999 SCT040 QNH3001INS BECMG 1914/1915 26012G18KT 9999 SCT030 QNH2992INS TX35/1821Z TN21/1910Z
NOTAMs
Click for the latest NOTAMs
NOTAMs are issued by the DoD/FAA and will open in a separate window not controlled by AirNav.

 

 
 

FBO, Fuel Providers, and Aircraft Ground Support

  
 Business Name 
 
 Contact 
 
 Services / Description 
 
Fuel Prices
 
Comments
  
Grayson County Airport 270-242-7700
no information available

If you are affiliated with Grayson County Airport and would like to show here your services, contact info, web link, logo, and more, click here
100LL
SS $4.49 
 Updated 11-Jun-2018
 
   write
SS=Self service
Update Fuel Prices
 

Would you like to see your business listed on this page?

 If your business provides an interesting product or service to pilots, flight crews, aircraft, or users of the Leitchfield-Grayson County Airport, you should consider listing it here.  To start the listing process, click on the button below
 
Add a business
 

Other Pages about Leitchfield-Grayson County Airport

Update a link
 
Copyright © AirNav, LLC. All rights reserved. Privacy Policy  Contact